Etusivu
METAR-TAF:

METAR-TAF

Lentoasemat :

Västerås, Ruotsi

Västeråsin lentoasema

Leveyspiiri: 59-35N, Pituuspiiri: 016-38E, korkeus merenpinnasta: 6 m

Tämänhetkinen sää

Tämä raportti tehtiin 27 minuuttia sitten, kello 07.20 UTC
Tuuli 11 kn pohjoisesta
Lämpötila -10°C
Kosteus 85%
Ilmanpaine 1042 hPa
Näkyvyys: 7000 m

METAR: ESOW 250720Z AUTO 01011KT 7000 FEW010/// BKN014/// BKN019/// M10/M12 Q1042

Aika: 08:47 (07:47 UTC)

Sääennuste

Tämä raportti tehtiin 17 minuuttia sitten, kello 07.30 UTC
Ennuste voimassa 25. päivästä klo 08 UTC - 25. päivään klo 15 UTC
Tuuli 10 kn pohjoisesta
Näkyvyys 10 km tai enemmän
Muutamia pilviä 1500 ft:n korkeudessa
Ajoittain
25. päivästä klo 12 UTC - 25. päivään klo 15 UTC
Näkyvyys: 2500 m
1400 ft:n korkeudessa
heikkoja lumikuuroja

TAF: ESOW 250730Z 2508/2515 01010KT 9999 FEW015 TEMPO 2512/2515 2500 -SHSN VV014

Säähavainnot ja -ennusteet yli 4000 lentoasemalta (METAR- ja TAF-raportit).

Käytössä olevat sääasemat on merkitty karttaan keltaisilla ja punaisilla pisteillä.

Aseta hiiri pisteen päälle nähdäksesi sääaseman nimen.

Klikkaa sitten nähdäksesi säähavainnot ja -ennusteet.

Kartan vaihtaminen: klikkaa mustalla rastilla varustettuja vihreitä pisteitä, niin voit zoomata sisään; viivalla varustettua vihreää pistettä, niin voit zoomata ulos tai vihreitä nuolia, niin pääset viereisille kartoille.


METAR-TAF: